sensor_id;sensor_type;location;lat;lon;timestamp;pressure;altitude;pressure_sealevel;temperature;humidity
28354;BME280;15603;50.878;8.036;2024-03-29T00:01:24;142810.41;;;-1.95;86.09
28354;BME280;15603;50.878;8.036;2024-03-29T00:03:51;142812.84;;;-1.94;86.57
28354;BME280;15603;50.878;8.036;2024-03-29T00:06:19;142789.97;;;-2.04;86.29
28354;BME280;15603;50.878;8.036;2024-03-29T00:08:45;142821.28;;;-1.90;87.57
28354;BME280;15603;50.878;8.036;2024-03-29T00:11:12;142798.41;;;-2.00;87.20
28354;BME280;15603;50.878;8.036;2024-03-29T00:13:38;142822.47;;;-1.90;87.34
28354;BME280;15603;50.878;8.036;2024-03-29T00:16:04;142757.44;;;-2.18;88.08
28354;BME280;15603;50.878;8.036;2024-03-29T00:18:30;142781.53;;;-2.07;88.28
28354;BME280;15603;50.878;8.036;2024-03-29T00:20:57;142743.00;;;-2.24;88.25
28354;BME280;15603;50.878;8.036;2024-03-29T00:23:23;142738.19;;;-2.26;89.63
28354;BME280;15603;50.878;8.036;2024-03-29T00:25:49;142686.44;;;-2.48;89.70
28354;BME280;15603;50.878;8.036;2024-03-29T00:28:15;142664.78;;;-2.57;90.65
28354;BME280;15603;50.878;8.036;2024-03-29T00:30:41;142686.44;;;-2.48;90.76
28354;BME280;15603;50.878;8.036;2024-03-29T00:33:07;142733.38;;;-2.28;90.37
28354;BME280;15603;50.878;8.036;2024-03-29T00:35:33;142718.94;;;-2.34;90.32
28354;BME280;15603;50.878;8.036;2024-03-29T00:38:00;142696.06;;;-2.44;90.74
28354;BME280;15603;50.878;8.036;2024-03-29T00:40:26;142692.44;;;-2.45;90.74
28354;BME280;15603;50.878;8.036;2024-03-29T00:42:52;142716.50;;;-2.35;91.60
28354;BME280;15603;50.878;8.036;2024-03-29T00:45:18;142661.16;;;-2.59;91.48
28354;BME280;15603;50.878;8.036;2024-03-29T00:47:44;142603.41;;;-2.83;92.12
28354;BME280;15603;50.878;8.036;2024-03-29T00:50:11;142685.22;;;-2.48;92.85
28354;BME280;15603;50.878;8.036;2024-03-29T00:52:37;142646.72;;;-2.65;92.84
28354;BME280;15603;50.878;8.036;2024-03-29T00:55:03;142681.63;;;-2.50;93.06
28354;BME280;15603;50.878;8.036;2024-03-29T00:57:31;142673.22;;;-2.53;93.08
28354;BME280;15603;50.878;8.036;2024-03-29T00:59:57;142687.63;;;-2.47;92.61
28354;BME280;15603;50.878;8.036;2024-03-29T01:02:23;142692.44;;;-2.45;92.73
28354;BME280;15603;50.878;8.036;2024-03-29T01:04:50;142692.44;;;-2.45;93.29
28354;BME280;15603;50.878;8.036;2024-03-29T01:07:17;142680.41;;;-2.50;92.86
28354;BME280;15603;50.878;8.036;2024-03-29T01:09:44;142656.34;;;-2.61;92.33
28354;BME280;15603;50.878;8.036;2024-03-29T01:12:10;142697.25;;;-2.43;92.41
28354;BME280;15603;50.878;8.036;2024-03-29T01:14:37;142697.25;;;-2.43;91.68
28354;BME280;15603;50.878;8.036;2024-03-29T01:17:03;142711.69;;;-2.37;91.75
28354;BME280;15603;50.878;8.036;2024-03-29T01:19:30;142680.41;;;-2.50;91.11
28354;BME280;15603;50.878;8.036;2024-03-29T01:21:56;142762.28;;;-2.15;91.07
28354;BME280;15603;50.878;8.036;2024-03-29T01:24:23;142737.00;;;-2.26;91.09
28354;BME280;15603;50.878;8.036;2024-03-29T01:26:49;142783.91;;;-2.06;90.14
28354;BME280;15603;50.878;8.036;2024-03-29T01:29:15;142746.59;;;-2.22;89.35
28354;BME280;15603;50.878;8.036;2024-03-29T01:31:41;142806.78;;;-1.97;88.98
28354;BME280;15603;50.878;8.036;2024-03-29T01:34:08;142728.56;;;-2.30;88.01
28354;BME280;15603;50.878;8.036;2024-03-29T01:36:34;142759.84;;;-2.17;88.78
28354;BME280;15603;50.878;8.036;2024-03-29T01:39:00;142767.09;;;-2.13;89.52
28354;BME280;15603;50.878;8.036;2024-03-29T01:41:26;142816.47;;;-1.92;89.07
28354;BME280;15603;50.878;8.036;2024-03-29T01:43:54;142846.53;;;-1.80;88.05
28354;BME280;15603;50.878;8.036;2024-03-29T01:46:22;142850.16;;;-1.78;87.97
28354;BME280;15603;50.878;8.036;2024-03-29T01:48:52;142769.47;;;-2.12;88.31
28354;BME280;15603;50.878;8.036;2024-03-29T01:51:21;142858.59;;;-1.74;89.00
28354;BME280;15603;50.878;8.036;2024-03-29T01:53:52;142824.84;;;-1.89;88.64
28354;BME280;15603;50.878;8.036;2024-03-29T01:56:21;142868.22;;;-1.70;87.25
28354;BME280;15603;50.878;8.036;2024-03-29T01:58:49;142840.53;;;-1.82;86.88
28354;BME280;15603;50.878;8.036;2024-03-29T02:01:18;142830.91;;;-1.86;86.89
28354;BME280;15603;50.878;8.036;2024-03-29T02:03:46;142854.97;;;-1.76;86.00
28354;BME280;15603;50.878;8.036;2024-03-29T02:06:13;142835.72;;;-1.84;85.88
28354;BME280;15603;50.878;8.036;2024-03-29T02:08:40;142906.75;;;-1.54;86.43
28354;BME280;15603;50.878;8.036;2024-03-29T02:11:06;142892.28;;;-1.60;86.40
28354;BME280;15603;50.878;8.036;2024-03-29T02:13:32;142887.47;;;-1.62;86.80
28354;BME280;15603;50.878;8.036;2024-03-29T02:15:59;142897.09;;;-1.58;85.67
28354;BME280;15603;50.878;8.036;2024-03-29T02:18:25;142853.78;;;-1.76;84.33
28354;BME280;15603;50.878;8.036;2024-03-29T02:20:52;142918.78;;;-1.49;86.72
28354;BME280;15603;50.878;8.036;2024-03-29T02:23:20;142942.91;;;-1.39;85.48
28354;BME280;15603;50.878;8.036;2024-03-29T02:25:48;142892.28;;;-1.60;83.82
28354;BME280;15603;50.878;8.036;2024-03-29T02:28:16;142930.84;;;-1.44;82.75
28354;BME280;15603;50.878;8.036;2024-03-29T02:30:42;142956.09;;;-1.33;83.11
28354;BME280;15603;50.878;8.036;2024-03-29T02:33:08;142985.03;;;-1.21;83.65
28354;BME280;15603;50.878;8.036;2024-03-29T02:35:34;142940.47;;;-1.40;83.98
28354;BME280;15603;50.878;8.036;2024-03-29T02:38:00;142926.03;;;-1.46;84.46
28354;BME280;15603;50.878;8.036;2024-03-29T02:40:26;142894.72;;;-1.59;85.34
28354;BME280;15603;50.878;8.036;2024-03-29T02:42:53;142948.91;;;-1.36;87.18
28354;BME280;15603;50.878;8.036;2024-03-29T02:45:19;142853.78;;;-1.76;86.21
28354;BME280;15603;50.878;8.036;2024-03-29T02:47:45;142871.84;;;-1.69;85.16
28354;BME280;15603;50.878;8.036;2024-03-29T02:50:13;142926.03;;;-1.46;85.80
28354;BME280;15603;50.878;8.036;2024-03-29T02:52:39;142922.41;;;-1.47;86.31
28354;BME280;15603;50.878;8.036;2024-03-29T02:55:06;142904.34;;;-1.55;86.43
28354;BME280;15603;50.878;8.036;2024-03-29T02:57:32;142928.41;;;-1.45;87.06
28354;BME280;15603;50.878;8.036;2024-03-29T02:59:59;142905.53;;;-1.54;88.18
28354;BME280;15603;50.878;8.036;2024-03-29T03:02:25;142882.66;;;-1.64;88.11
28354;BME280;15603;50.878;8.036;2024-03-29T03:04:52;142930.84;;;-1.44;86.61
28354;BME280;15603;50.878;8.036;2024-03-29T03:07:18;142928.41;;;-1.45;86.67
28354;BME280;15603;50.878;8.036;2024-03-29T03:10:03;142936.84;;;-1.41;85.65
28354;BME280;15603;50.878;8.036;2024-03-29T03:12:47;142901.91;;;-1.56;84.77
28354;BME280;15603;50.878;8.036;2024-03-29T03:15:13;142923.59;;;-1.47;85.69
28354;BME280;15603;50.878;8.036;2024-03-29T03:17:39;142868.22;;;-1.70;84.85
28354;BME280;15603;50.878;8.036;2024-03-29T03:20:06;142870.63;;;-1.69;84.75
28354;BME280;15603;50.878;8.036;2024-03-29T03:22:32;142905.53;;;-1.54;83.99
28354;BME280;15603;50.878;8.036;2024-03-29T03:24:58;142940.47;;;-1.40;85.07
28354;BME280;15603;50.878;8.036;2024-03-29T03:27:25;142928.41;;;-1.45;84.47
28354;BME280;15603;50.878;8.036;2024-03-29T03:29:51;142910.34;;;-1.52;83.92
28354;BME280;15603;50.878;8.036;2024-03-29T03:32:17;142942.91;;;-1.39;84.89
28354;BME280;15603;50.878;8.036;2024-03-29T03:34:43;142894.72;;;-1.59;85.60
28354;BME280;15603;50.878;8.036;2024-03-29T03:37:09;142921.22;;;-1.48;83.86
28354;BME280;15603;50.878;8.036;2024-03-29T03:39:37;142916.41;;;-1.50;83.59
28354;BME280;15603;50.878;8.036;2024-03-29T03:42:03;142950.09;;;-1.35;83.72
28354;BME280;15603;50.878;8.036;2024-03-29T03:44:30;142940.47;;;-1.40;84.15
28354;BME280;15603;50.878;8.036;2024-03-29T03:46:56;142951.28;;;-1.35;83.82
28354;BME280;15603;50.878;8.036;2024-03-29T03:49:23;142971.78;;;-1.26;83.24
28354;BME280;15603;50.878;8.036;2024-03-29T03:51:49;142940.47;;;-1.40;83.46
28354;BME280;15603;50.878;8.036;2024-03-29T03:54:15;142926.03;;;-1.46;83.62
28354;BME280;15603;50.878;8.036;2024-03-29T03:56:41;142969.34;;;-1.27;83.70
28354;BME280;15603;50.878;8.036;2024-03-29T03:59:08;142877.84;;;-1.66;83.42
28354;BME280;15603;50.878;8.036;2024-03-29T04:01:34;142942.91;;;-1.39;83.80
28354;BME280;15603;50.878;8.036;2024-03-29T04:04:01;142969.34;;;-1.27;84.28
28354;BME280;15603;50.878;8.036;2024-03-29T04:06:27;142933.22;;;-1.43;86.15
28354;BME280;15603;50.878;8.036;2024-03-29T04:08:53;142966.97;;;-1.28;86.11
28354;BME280;15603;50.878;8.036;2024-03-29T04:11:19;142913.97;;;-1.51;85.52
28354;BME280;15603;50.878;8.036;2024-03-29T04:13:46;142892.28;;;-1.60;85.71
28354;BME280;15603;50.878;8.036;2024-03-29T04:16:12;142873.03;;;-1.68;87.14
28354;BME280;15603;50.878;8.036;2024-03-29T04:18:38;142899.53;;;-1.57;89.42
28354;BME280;15603;50.878;8.036;2024-03-29T04:21:04;142918.78;;;-1.49;91.61
28354;BME280;15603;50.878;8.036;2024-03-29T04:23:31;142856.16;;;-1.75;92.45
28354;BME280;15603;50.878;8.036;2024-03-29T04:25:58;142860.97;;;-1.73;94.86
28354;BME280;15603;50.878;8.036;2024-03-29T04:28:25;142838.09;;;-1.83;98.41
28354;BME280;15603;50.878;8.036;2024-03-29T04:30:55;142817.66;;;-1.92;100.00
28354;BME280;15603;50.878;8.036;2024-03-29T04:33:22;142795.97;;;-2.01;100.00
28354;BME280;15603;50.878;8.036;2024-03-29T04:36:03;142757.44;;;-2.18;100.00
28354;BME280;15603;50.878;8.036;2024-03-29T04:38:30;142650.34;;;-2.63;100.00
28354;BME280;15603;50.878;8.036;2024-03-29T04:40:58;142733.38;;;-2.28;100.00
28354;BME280;15603;50.878;8.036;2024-03-29T04:43:26;142727.38;;;-2.30;100.00
28354;BME280;15603;50.878;8.036;2024-03-29T04:46:22;142715.31;;;-2.35;100.00
28354;BME280;15603;50.878;8.036;2024-03-29T04:48:50;142694.88;;;-2.44;100.00
28354;BME280;15603;50.878;8.036;2024-03-29T04:51:16;142675.59;;;-2.52;100.00
28354;BME280;15603;50.878;8.036;2024-03-29T04:53:42;142661.16;;;-2.59;100.00
28354;BME280;15603;50.878;8.036;2024-03-29T04:56:09;142661.16;;;-2.59;100.00
28354;BME280;15603;50.878;8.036;2024-03-29T04:58:35;142607.03;;;-2.82;100.00
28354;BME280;15603;50.878;8.036;2024-03-29T05:01:01;142610.63;;;-2.80;100.00
28354;BME280;15603;50.878;8.036;2024-03-29T05:03:28;142628.69;;;-2.72;100.00
28354;BME280;15603;50.878;8.036;2024-03-29T05:05:54;142631.06;;;-2.71;100.00
28354;BME280;15603;50.878;8.036;2024-03-29T05:08:20;142605.81;;;-2.82;100.00
28354;BME280;15603;50.878;8.036;2024-03-29T05:10:49;142667.16;;;-2.56;100.00
28354;BME280;15603;50.878;8.036;2024-03-29T05:13:19;142655.16;;;-2.61;100.00
28354;BME280;15603;50.878;8.036;2024-03-29T05:15:48;142687.63;;;-2.47;100.00
28354;BME280;15603;50.878;8.036;2024-03-29T05:18:14;142626.25;;;-2.73;100.00
28354;BME280;15603;50.878;8.036;2024-03-29T05:20:40;142672.03;;;-2.54;100.00
28354;BME280;15603;50.878;8.036;2024-03-29T05:23:13;142691.25;;;-2.46;100.00
28354;BME280;15603;50.878;8.036;2024-03-29T05:25:40;142718.94;;;-2.34;100.00
28354;BME280;15603;50.878;8.036;2024-03-29T05:28:09;142716.50;;;-2.35;100.00
28354;BME280;15603;50.878;8.036;2024-03-29T05:30:35;142743.00;;;-2.24;100.00
28354;BME280;15603;50.878;8.036;2024-03-29T05:33:03;142740.59;;;-2.25;100.00
28354;BME280;15603;50.878;8.036;2024-03-29T05:35:30;142718.94;;;-2.34;100.00
28354;BME280;15603;50.878;8.036;2024-03-29T05:37:56;142769.47;;;-2.12;100.00
28354;BME280;15603;50.878;8.036;2024-03-29T05:40:24;142714.13;;;-2.36;100.00
28354;BME280;15603;50.878;8.036;2024-03-29T05:42:54;142794.78;;;-2.02;100.00
28354;BME280;15603;50.878;8.036;2024-03-29T05:45:26;142779.09;;;-2.08;100.00
28354;BME280;15603;50.878;8.036;2024-03-29T05:47:54;142740.59;;;-2.25;100.00
28354;BME280;15603;50.878;8.036;2024-03-29T05:50:22;142798.41;;;-2.00;100.00
28354;BME280;15603;50.878;8.036;2024-03-29T05:52:49;142747.81;;;-2.22;100.00
28354;BME280;15603;50.878;8.036;2024-03-29T05:55:16;142788.72;;;-2.04;100.00
28354;BME280;15603;50.878;8.036;2024-03-29T05:57:42;142755.03;;;-2.19;100.00
28354;BME280;15603;50.878;8.036;2024-03-29T06:00:12;142749.03;;;-2.21;100.00
28354;BME280;15603;50.878;8.036;2024-03-29T06:02:40;142769.47;;;-2.12;100.00
28354;BME280;15603;50.878;8.036;2024-03-29T06:05:06;142848.97;;;-1.79;100.00
28354;BME280;15603;50.878;8.036;2024-03-29T06:07:33;142798.41;;;-2.00;100.00
28354;BME280;15603;50.878;8.036;2024-03-29T06:10:00;142824.84;;;-1.89;100.00
28354;BME280;15603;50.878;8.036;2024-03-29T06:12:33;142854.97;;;-1.76;100.00
28354;BME280;15603;50.878;8.036;2024-03-29T06:15:00;142759.84;;;-2.17;100.00
28354;BME280;15603;50.878;8.036;2024-03-29T06:17:46;142848.97;;;-1.79;100.00
28354;BME280;15603;50.878;8.036;2024-03-29T06:20:12;142863.41;;;-1.72;100.00
28354;BME280;15603;50.878;8.036;2024-03-29T06:22:38;142909.16;;;-1.53;100.00
28354;BME280;15603;50.878;8.036;2024-03-29T06:25:05;142852.56;;;-1.77;100.00
28354;BME280;15603;50.878;8.036;2024-03-29T06:27:32;142877.84;;;-1.66;100.00
28354;BME280;15603;50.878;8.036;2024-03-29T06:29:58;142870.63;;;-1.69;100.00
28354;BME280;15603;50.878;8.036;2024-03-29T06:32:25;142877.84;;;-1.66;100.00
28354;BME280;15603;50.878;8.036;2024-03-29T06:34:51;142836.91;;;-1.84;100.00
28354;BME280;15603;50.878;8.036;2024-03-29T06:37:17;142879.03;;;-1.66;100.00
28354;BME280;15603;50.878;8.036;2024-03-29T06:39:43;142903.13;;;-1.55;100.00
28354;BME280;15603;50.878;8.036;2024-03-29T06:42:10;142897.09;;;-1.58;100.00
28354;BME280;15603;50.878;8.036;2024-03-29T06:44:36;142863.41;;;-1.72;100.00
28354;BME280;15603;50.878;8.036;2024-03-29T06:47:03;142877.84;;;-1.66;100.00
28354;BME280;15603;50.878;8.036;2024-03-29T06:49:30;142846.53;;;-1.80;100.00
28354;BME280;15603;50.878;8.036;2024-03-29T06:51:56;142851.34;;;-1.78;100.00
28354;BME280;15603;50.878;8.036;2024-03-29T06:54:25;142835.72;;;-1.84;100.00
28354;BME280;15603;50.878;8.036;2024-03-29T06:56:53;142827.28;;;-1.88;100.00
28354;BME280;15603;50.878;8.036;2024-03-29T06:59:19;142870.63;;;-1.69;100.00
28354;BME280;15603;50.878;8.036;2024-03-29T07:01:46;142882.66;;;-1.64;100.00
28354;BME280;15603;50.878;8.036;2024-03-29T07:04:19;142821.28;;;-1.90;100.00
28354;BME280;15603;50.878;8.036;2024-03-29T07:06:46;142762.28;;;-2.15;100.00
28354;BME280;15603;50.878;8.036;2024-03-29T07:09:18;142841.72;;;-1.82;100.00
28354;BME280;15603;50.878;8.036;2024-03-29T07:11:48;142860.97;;;-1.73;100.00
28354;BME280;15603;50.878;8.036;2024-03-29T07:14:16;142904.34;;;-1.55;100.00
28354;BME280;15603;50.878;8.036;2024-03-29T07:16:43;142889.91;;;-1.61;100.00
28354;BME280;15603;50.878;8.036;2024-03-29T07:19:09;142824.84;;;-1.89;100.00
28354;BME280;15603;50.878;8.036;2024-03-29T07:21:43;142898.34;;;-1.58;100.00
28354;BME280;15603;50.878;8.036;2024-03-29T07:24:09;142897.09;;;-1.58;100.00
28354;BME280;15603;50.878;8.036;2024-03-29T07:26:36;142850.16;;;-1.78;100.00
28354;BME280;15603;50.878;8.036;2024-03-29T07:29:02;142869.41;;;-1.70;100.00
28354;BME280;15603;50.878;8.036;2024-03-29T07:31:32;142859.78;;;-1.74;100.00
28354;BME280;15603;50.878;8.036;2024-03-29T07:33:58;142873.03;;;-1.68;100.00
28354;BME280;15603;50.878;8.036;2024-03-29T07:36:25;142870.63;;;-1.69;100.00
28354;BME280;15603;50.878;8.036;2024-03-29T07:38:53;142887.47;;;-1.62;100.00
28354;BME280;15603;50.878;8.036;2024-03-29T07:41:19;142845.34;;;-1.80;100.00
28354;BME280;15603;50.878;8.036;2024-03-29T07:43:55;142897.09;;;-1.58;100.00
28354;BME280;15603;50.878;8.036;2024-03-29T07:46:28;142841.72;;;-1.82;100.00
28354;BME280;15603;50.878;8.036;2024-03-29T07:48:55;142803.22;;;-1.98;100.00
28354;BME280;15603;50.878;8.036;2024-03-29T07:51:21;142893.50;;;-1.60;100.00
28354;BME280;15603;50.878;8.036;2024-03-29T07:53:47;142897.09;;;-1.58;100.00
28354;BME280;15603;50.878;8.036;2024-03-29T07:56:14;142900.72;;;-1.56;100.00
28354;BME280;15603;50.878;8.036;2024-03-29T07:58:40;142830.91;;;-1.86;100.00
28354;BME280;15603;50.878;8.036;2024-03-29T08:01:06;142877.84;;;-1.66;100.00
28354;BME280;15603;50.878;8.036;2024-03-29T08:03:32;142889.91;;;-1.61;100.00
28354;BME280;15603;50.878;8.036;2024-03-29T08:06:01;142887.47;;;-1.62;100.00
28354;BME280;15603;50.878;8.036;2024-03-29T08:08:32;142897.09;;;-1.58;100.00
28354;BME280;15603;50.878;8.036;2024-03-29T08:11:01;142938.03;;;-1.41;100.00
28354;BME280;15603;50.878;8.036;2024-03-29T08:13:28;142913.97;;;-1.51;100.00
28354;BME280;15603;50.878;8.036;2024-03-29T08:16:01;142940.47;;;-1.40;100.00
28354;BME280;15603;50.878;8.036;2024-03-29T08:18:28;142969.34;;;-1.27;100.00
28354;BME280;15603;50.878;8.036;2024-03-29T08:20:55;142977.78;;;-1.24;100.00
28354;BME280;15603;50.878;8.036;2024-03-29T08:23:22;142979.03;;;-1.23;100.00
28354;BME280;15603;50.878;8.036;2024-03-29T08:25:48;142928.41;;;-1.45;100.00
28354;BME280;15603;50.878;8.036;2024-03-29T08:28:15;142986.25;;;-1.20;100.00
28354;BME280;15603;50.878;8.036;2024-03-29T08:30:42;143007.94;;;-1.11;100.00
28354;BME280;15603;50.878;8.036;2024-03-29T08:33:08;143004.31;;;-1.12;100.00
28354;BME280;15603;50.878;8.036;2024-03-29T08:35:34;143036.81;;;-0.99;100.00
28354;BME280;15603;50.878;8.036;2024-03-29T08:38:01;143012.75;;;-1.09;100.00
28354;BME280;15603;50.878;8.036;2024-03-29T08:40:28;143050.09;;;-0.93;100.00
28354;BME280;15603;50.878;8.036;2024-03-29T08:42:57;143094.66;;;-0.74;100.00
28354;BME280;15603;50.878;8.036;2024-03-29T08:45:23;143080.22;;;-0.80;100.00
28354;BME280;15603;50.878;8.036;2024-03-29T08:47:49;143003.13;;;-1.13;100.00
28354;BME280;15603;50.878;8.036;2024-03-29T08:50:16;143107.94;;;-0.68;100.00
28354;BME280;15603;50.878;8.036;2024-03-29T08:52:42;143086.22;;;-0.77;100.00
28354;BME280;15603;50.878;8.036;2024-03-29T08:55:10;143146.53;;;-0.52;100.00
28354;BME280;15603;50.878;8.036;2024-03-29T08:57:36;143169.41;;;-0.42;100.00
28354;BME280;15603;50.878;8.036;2024-03-29T09:00:02;143135.66;;;-0.56;100.00
28354;BME280;15603;50.878;8.036;2024-03-29T09:02:29;143163.38;;;-0.45;100.00
28354;BME280;15603;50.878;8.036;2024-03-29T09:04:56;143195.94;;;-0.31;100.00
28354;BME280;15603;50.878;8.036;2024-03-29T09:07:22;143142.91;;;-0.53;100.00
28354;BME280;15603;50.878;8.036;2024-03-29T09:09:50;143205.59;;;-0.27;100.00
28354;BME280;15603;50.878;8.036;2024-03-29T09:12:16;143176.63;;;-0.39;100.00
28354;BME280;15603;50.878;8.036;2024-03-29T09:14:45;143203.16;;;-0.28;100.00
28354;BME280;15603;50.878;8.036;2024-03-29T09:17:12;143205.59;;;-0.27;100.00
28354;BME280;15603;50.878;8.036;2024-03-29T09:19:38;143181.44;;;-0.37;100.00
28354;BME280;15603;50.878;8.036;2024-03-29T09:22:04;143215.22;;;-0.23;100.00
28354;BME280;15603;50.878;8.036;2024-03-29T09:24:31;143127.22;;;-0.60;100.00
28354;BME280;15603;50.878;8.036;2024-03-29T09:27:01;143128.44;;;-0.60;100.00
28354;BME280;15603;50.878;8.036;2024-03-29T09:29:27;143145.28;;;-0.52;100.00
28354;BME280;15603;50.878;8.036;2024-03-29T09:31:53;143168.19;;;-0.43;100.00
28354;BME280;15603;50.878;8.036;2024-03-29T09:34:19;143177.88;;;-0.38;100.00
28354;BME280;15603;50.878;8.036;2024-03-29T09:36:46;143179.06;;;-0.38;100.00
28354;BME280;15603;50.878;8.036;2024-03-29T09:39:12;142983.84;;;-1.21;100.00
28354;BME280;15603;50.878;8.036;2024-03-29T09:41:45;143197.16;;;-0.30;100.00
28354;BME280;15603;50.878;8.036;2024-03-29T09:44:11;143256.22;;;-0.05;100.00
28354;BME280;15603;50.878;8.036;2024-03-29T09:46:38;143230.88;;;-0.16;100.00
28354;BME280;15603;50.878;8.036;2024-03-29T09:49:08;143222.44;;;-0.20;100.00
28354;BME280;15603;50.878;8.036;2024-03-29T09:51:34;143289.97;;;0.09;100.00
28354;BME280;15603;50.878;8.036;2024-03-29T09:54:01;143306.84;;;0.16;100.00
28354;BME280;15603;50.878;8.036;2024-03-29T09:56:30;143247.78;;;-0.09;100.00
28354;BME280;15603;50.878;8.036;2024-03-29T09:58:56;143287.56;;;0.08;100.00
28354;BME280;15603;50.878;8.036;2024-03-29T10:01:23;143318.94;;;0.22;100.00
28354;BME280;15603;50.878;8.036;2024-03-29T10:03:53;143359.94;;;0.39;100.00
28354;BME280;15603;50.878;8.036;2024-03-29T10:06:19;143350.28;;;0.35;100.00
28354;BME280;15603;50.878;8.036;2024-03-29T10:08:46;143323.75;;;0.24;100.00
28354;BME280;15603;50.878;8.036;2024-03-29T10:11:14;143318.94;;;0.22;100.00
28354;BME280;15603;50.878;8.036;2024-03-29T10:13:42;143304.41;;;0.15;100.00
28354;BME280;15603;50.878;8.036;2024-03-29T10:16:11;143403.34;;;0.57;100.00
28354;BME280;15603;50.878;8.036;2024-03-29T10:18:40;143415.41;;;0.63;100.00
28354;BME280;15603;50.878;8.036;2024-03-29T10:21:07;143382.84;;;0.49;100.00
28354;BME280;15603;50.878;8.036;2024-03-29T10:23:35;143376.78;;;0.46;100.00
28354;BME280;15603;50.878;8.036;2024-03-29T10:26:02;143425.06;;;0.67;100.00
28354;BME280;15603;50.878;8.036;2024-03-29T10:28:34;143412.97;;;0.62;100.00
28354;BME280;15603;50.878;8.036;2024-03-29T10:31:02;143399.75;;;0.56;100.00
28354;BME280;15603;50.878;8.036;2024-03-29T10:33:32;143425.06;;;0.67;100.00
28354;BME280;15603;50.878;8.036;2024-03-29T10:35:59;143457.63;;;0.81;100.00
28354;BME280;15603;50.878;8.036;2024-03-29T10:38:26;143425.06;;;0.67;100.00
28354;BME280;15603;50.878;8.036;2024-03-29T10:40:53;143415.41;;;0.63;100.00
28354;BME280;15603;50.878;8.036;2024-03-29T10:43:20;143449.19;;;0.77;100.00
28354;BME280;15603;50.878;8.036;2024-03-29T10:45:50;143473.34;;;0.87;100.00
28354;BME280;15603;50.878;8.036;2024-03-29T10:48:20;143478.16;;;0.89;100.00
28354;BME280;15603;50.878;8.036;2024-03-29T10:50:48;143403.34;;;0.57;100.00
28354;BME280;15603;50.878;8.036;2024-03-29T10:53:17;143444.34;;;0.75;100.00
28354;BME280;15603;50.878;8.036;2024-03-29T10:55:44;143507.09;;;1.02;100.00
28354;BME280;15603;50.878;8.036;2024-03-29T10:58:11;143578.31;;;1.32;100.00
28354;BME280;15603;50.878;8.036;2024-03-29T11:00:47;143621.81;;;1.50;100.00
28354;BME280;15603;50.878;8.036;2024-03-29T11:06:04;143649.56;;;1.62;100.00
28354;BME280;15603;50.878;8.036;2024-03-29T11:08:36;143668.88;;;1.70;100.00
28354;BME280;15603;50.878;8.036;2024-03-29T11:11:05;143688.19;;;1.79;100.00
28354;BME280;15603;50.878;8.036;2024-03-29T11:13:49;143700.28;;;1.84;100.00
28354;BME280;15603;50.878;8.036;2024-03-29T11:16:18;143597.63;;;1.40;100.00
28354;BME280;15603;50.878;8.036;2024-03-29T11:18:47;143568.69;;;1.28;100.00
28354;BME280;15603;50.878;8.036;2024-03-29T11:21:15;143642.31;;;1.59;100.00
28354;BME280;15603;50.878;8.036;2024-03-29T11:23:52;143613.34;;;1.47;100.00
28354;BME280;15603;50.878;8.036;2024-03-29T11:26:19;143656.78;;;1.65;100.00
28354;BME280;15603;50.878;8.036;2024-03-29T11:28:50;143658.03;;;1.66;100.00
28354;BME280;15603;50.878;8.036;2024-03-29T11:31:16;143642.31;;;1.59;100.00
28354;BME280;15603;50.878;8.036;2024-03-29T11:36:17;143794.50;;;2.24;100.00
28354;BME280;15603;50.878;8.036;2024-03-29T11:38:47;143813.81;;;2.32;100.00
28354;BME280;15603;50.878;8.036;2024-03-29T11:41:19;143833.13;;;2.40;100.00
28354;BME280;15603;50.878;8.036;2024-03-29T11:43:50;143840.38;;;2.43;100.00
28354;BME280;15603;50.878;8.036;2024-03-29T11:46:17;143769.09;;;2.13;100.00
28354;BME280;15603;50.878;8.036;2024-03-29T11:48:44;143740.13;;;2.01;100.00
28354;BME280;15603;50.878;8.036;2024-03-29T11:51:13;143771.53;;;2.14;100.00
28354;BME280;15603;50.878;8.036;2024-03-29T11:53:44;143731.69;;;1.97;100.00
28354;BME280;15603;50.878;8.036;2024-03-29T11:56:11;143730.47;;;1.96;100.00
28354;BME280;15603;50.878;8.036;2024-03-29T11:58:40;143754.63;;;2.07;100.00
28354;BME280;15603;50.878;8.036;2024-03-29T12:01:10;143668.88;;;1.70;100.00
28354;BME280;15603;50.878;8.036;2024-03-29T12:03:41;143700.28;;;1.84;100.00
28354;BME280;15603;50.878;8.036;2024-03-29T12:06:10;143729.25;;;1.96;100.00
28354;BME280;15603;50.878;8.036;2024-03-29T12:08:57;143598.88;;;1.41;100.00
28354;BME280;15603;50.878;8.036;2024-03-29T12:11:25;143726.84;;;1.95;100.00
28354;BME280;15603;50.878;8.036;2024-03-29T12:13:53;143782.41;;;2.19;100.00
28354;BME280;15603;50.878;8.036;2024-03-29T12:16:19;143690.63;;;1.80;100.00
28354;BME280;15603;50.878;8.036;2024-03-29T12:18:48;143676.13;;;1.73;100.00
28354;BME280;15603;50.878;8.036;2024-03-29T12:21:15;143659.22;;;1.66;100.00
28354;BME280;15603;50.878;8.036;2024-03-29T12:23:52;143707.53;;;1.87;100.00
28354;BME280;15603;50.878;8.036;2024-03-29T12:26:19;143723.22;;;1.93;100.00
28354;BME280;15603;50.878;8.036;2024-03-29T12:28:49;143792.06;;;2.23;100.00
28354;BME280;15603;50.878;8.036;2024-03-29T12:31:16;143771.53;;;2.14;100.00
28354;BME280;15603;50.878;8.036;2024-03-29T12:33:51;143854.88;;;2.49;100.00
28354;BME280;15603;50.878;8.036;2024-03-29T12:36:18;143763.09;;;2.10;100.00
28354;BME280;15603;50.878;8.036;2024-03-29T12:38:46;143746.16;;;2.03;100.00
28354;BME280;15603;50.878;8.036;2024-03-29T12:41:18;143754.63;;;2.07;100.00
28354;BME280;15603;50.878;8.036;2024-03-29T12:43:45;143683.34;;;1.76;100.00
28354;BME280;15603;50.878;8.036;2024-03-29T12:46:11;143724.41;;;1.94;100.00
28354;BME280;15603;50.878;8.036;2024-03-29T12:48:38;143656.78;;;1.65;100.00
28354;BME280;15603;50.878;8.036;2024-03-29T12:51:06;143701.47;;;1.84;100.00
28354;BME280;15603;50.878;8.036;2024-03-29T12:53:32;143752.19;;;2.06;100.00